Time;durP1;ratioP1;P1;durP2;ratioP2;P2;SDS_P1;SDS_P2;PMS_P1;PMS_P2;Temp;Humidity;BMP_temperature;BMP_pressure;BME280_temperature;BME280_humidity;BME280_pressure;Samples;Min_cycle;Max_cycle;Signal;HPM_P1;HPM_P2
2022/08/13 18:27:41;;;;;;;5.55;4.55;;;;;;;;;;10354909;28;20442;-72
2022/08/13 18:32:45;;;;;;;5.40;4.90;;;;;;;;;;10337319;28;20056;-72
2022/08/13 18:37:47;;;;;;;5.47;4.20;;;;;;;;;;10353318;28;20821;-73
2022/08/13 18:42:48;;;;;;;5.47;4.97;;;;;;;;;;10323341;28;20046;-72
2022/08/13 18:47:48;;;;;;;5.37;4.80;;;;;;;;;;10349399;28;20491;-72
2022/08/13 18:52:49;;;;;;;4.97;4.53;;;;;;;;;;10361600;28;20049;-72
2022/08/13 18:57:52;;;;;;;5.32;4.55;;;;;;;;;;10340091;28;20053;-71
2022/08/13 19:02:53;;;;;;;5.25;4.55;;;;;;;;;;10337973;28;20063;-71
2022/08/13 19:07:53;;;;;;;5.55;4.65;;;;;;;;;;10350564;28;20047;-68
2022/08/13 19:12:57;;;;;;;5.50;4.28;;;;;;;;;;10353794;28;20219;-72
2022/08/13 19:17:58;;;;;;;4.82;4.40;;;;;;;;;;10350188;28;20045;-73
2022/08/13 19:22:59;;;;;;;5.18;4.28;;;;;;;;;;10349912;28;20038;-72
2022/08/13 19:28:03;;;;;;;4.97;4.20;;;;;;;;;;10337704;28;20117;-73
2022/08/13 19:33:04;;;;;;;5.10;4.63;;;;;;;;;;10359264;28;20349;-72
2022/08/13 19:38:06;;;;;;;4.40;4.00;;;;;;;;;;10366793;28;20493;-73
2022/08/13 19:43:07;;;;;;;5.13;4.15;;;;;;;;;;10340867;28;20042;-71
2022/08/13 19:48:08;;;;;;;4.57;4.18;;;;;;;;;;10341805;28;20046;-73
2022/08/13 19:53:09;;;;;;;6.32;4.47;;;;;;;;;;10361221;28;20476;-73
2022/08/13 19:58:11;;;;;;;4.95;4.40;;;;;;;;;;10338867;28;20053;-72
2022/08/13 20:03:20;;;;;;;4.45;4.05;;;;;;;;;;10330331;28;20041;-71
2022/08/13 20:08:23;;;;;;;6.00;4.35;;;;;;;;;;10352417;28;20037;-72
2022/08/13 20:13:23;;;;;;;5.05;4.40;;;;;;;;;;10354768;28;25837;-70
2022/08/13 20:18:24;;;;;;;4.87;4.47;;;;;;;;;;10332479;28;20073;-72
2022/08/13 20:23:24;;;;;;;5.20;4.70;;;;;;;;;;10335752;28;20648;-72
2022/08/13 20:28:25;;;;;;;4.68;4.28;;;;;;;;;;10361267;28;20064;-71
2022/08/13 20:33:27;;;;;;;5.73;5.10;;;;;;;;;;10362364;28;20053;-73
2022/08/13 20:38:27;;;;;;;4.90;4.50;;;;;;;;;;10357044;28;20050;-74
2022/08/13 20:43:30;;;;;;;5.38;4.68;;;;;;;;;;10364265;28;20456;-72
2022/08/13 20:48:30;;;;;;;5.55;5.05;;;;;;;;;;10361331;28;20045;-73
2022/08/13 20:53:31;;;;;;;5.55;4.60;;;;;;;;;;10372344;28;20050;-76
2022/08/13 20:58:32;;;;;;;5.33;4.83;;;;;;;;;;10357791;28;20052;-71
2022/08/13 21:03:33;;;;;;;5.68;5.18;;;;;;;;;;10350328;28;20042;-72
2022/08/13 21:08:33;;;;;;;7.35;5.90;;;;;;;;;;10370016;28;20122;-71
2022/08/13 21:13:33;;;;;;;6.27;5.03;;;;;;;;;;10368225;28;20073;-73
2022/08/13 21:18:34;;;;;;;5.60;5.10;;;;;;;;;;10365133;28;20468;-72
2022/08/13 21:23:34;;;;;;;6.13;5.53;;;;;;;;;;10329233;28;20543;-73
2022/08/13 21:28:36;;;;;;;6.17;5.57;;;;;;;;;;10359792;28;20319;-71
2022/08/13 21:33:37;;;;;;;;;;;;;;;;;;10360513;28;20822;-72
2022/08/13 21:38:37;;;;;;;6.72;6.03;;;;;;;;;;10346109;28;19918;-72
2022/08/13 21:43:37;;;;;;;7.03;6.33;;;;;;;;;;10365836;28;20060;-71
2022/08/13 21:48:38;;;;;;;6.00;5.50;;;;;;;;;;10348775;28;20288;-73
2022/08/13 21:53:38;;;;;;;6.03;5.43;;;;;;;;;;10365579;28;20724;-72
2022/08/13 21:58:38;;;;;;;6.67;5.67;;;;;;;;;;10353545;28;20289;-69
2022/08/13 22:03:40;;;;;;;7.40;6.67;;;;;;;;;;10360875;28;20050;-71
2022/08/13 22:08:41;;;;;;;7.90;7.20;;;;;;;;;;10356109;28;20038;-71
2022/08/13 22:13:42;;;;;;;7.07;6.37;;;;;;;;;;10358704;28;20050;-73
2022/08/13 22:18:44;;;;;;;8.30;7.10;;;;;;;;;;10346089;28;20281;-72
2022/08/13 22:23:45;;;;;;;7.85;7.15;;;;;;;;;;10353593;28;20160;-72
2022/08/13 22:34:05;;;;;;;7.85;7.15;;;;;;;;;;10356526;28;20053;-71
2022/08/13 22:39:06;;;;;;;8.77;7.25;;;;;;;;;;10352620;28;20053;-72
2022/08/13 22:44:06;;;;;;;7.38;6.68;;;;;;;;;;10343049;28;20416;-71
2022/08/13 22:49:07;;;;;;;7.65;6.95;;;;;;;;;;10353635;28;20054;-72
2022/08/13 22:54:10;;;;;;;8.05;7.25;;;;;;;;;;10352664;28;20058;-72
2022/08/13 22:59:11;;;;;;;9.57;7.85;;;;;;;;;;10363525;28;20045;-72
2022/08/13 23:04:14;;;;;;;9.53;7.27;;;;;;;;;;10352269;28;20517;-72
2022/08/13 23:09:15;;;;;;;8.50;7.70;;;;;;;;;;10347531;28;20284;-72
2022/08/13 23:14:15;;;;;;;8.90;8.10;;;;;;;;;;10363675;28;20068;-72
2022/08/13 23:19:17;;;;;;;8.55;7.65;;;;;;;;;;10357807;28;20053;-72
2022/08/13 23:24:17;;;;;;;9.00;8.10;;;;;;;;;;10360385;28;20046;-71
2022/08/13 23:29:18;;;;;;;9.88;8.98;;;;;;;;;;10356115;28;20045;-72
2022/08/13 23:34:21;;;;;;;9.53;8.63;;;;;;;;;;10355529;28;20133;-72
2022/08/13 23:39:22;;;;;;;9.73;8.73;;;;;;;;;;10347029;28;20081;-72
2022/08/13 23:44:23;;;;;;;9.52;8.60;;;;;;;;;;10355539;28;20050;-71
2022/08/13 23:49:23;;;;;;;9.50;8.48;;;;;;;;;;10345526;28;20073;-72
2022/08/13 23:54:23;;;;;;;10.13;9.13;;;;;;;;;;10355179;28;20054;-71
2022/08/13 23:59:24;;;;;;;10.95;9.85;;;;;;;;;;10358680;28;20128;-71
